Time;durP1;ratioP1;P1;durP2;ratioP2;P2;SDS_P1;SDS_P2;PMS_P1;PMS_P2;Temp;Humidity;BMP_temperature;BMP_pressure;BME280_temperature;BME280_humidity;BME280_pressure;Samples;Min_cycle;Max_cycle;Signal;HPM_P1;HPM_P2
2021/09/02 00:00:38;;;;;;;9.65;7.900001;;;;;;;8.91;100;96079.3;;;;
2021/09/02 00:01:39;;;;;;;10.75;7.599999;;;;;;;8.83;100;96071.43;;;;
2021/09/02 00:02:39;;;;;;;10.75;7.599999;;;;;;;8.83;100;96071.43;;;;
2021/09/02 00:03:40;;;;;;;10.75;7.599999;;;;;;;8.83;100;96071.43;;;;
2021/09/02 00:04:40;;;;;;;10.75;7.599999;;;;;;;8.83;100;96071.43;;;;
2021/09/02 00:05:41;;;;;;;10.75;7.599999;;;;;;;8.83;100;96071.43;;;;
2021/09/02 00:06:42;;;;;;;10.75;7.599999;;;;;;;8.83;100;96071.43;;;;
2021/09/02 00:07:42;;;;;;;10.75;7.599999;;;;;;;8.83;100;96071.43;;;;
2021/09/02 00:08:43;;;;;;;10.75;7.599999;;;;;;;8.83;100;96071.43;;;;
2021/09/02 00:09:43;;;;;;;10.75;7.599999;;;;;;;8.83;100;96071.43;;;;
2021/09/02 00:10:44;;;;;;;10.75;7.599999;;;;;;;8.83;100;96071.43;;;;
2021/09/02 00:11:44;;;;;;;10.75;7.599999;;;;;;;8.83;100;96071.43;;;;
2021/09/02 00:12:45;;;;;;;8.249999;7.1;;;;;;;8.76;100;96063.33;;;;
2021/09/02 00:13:45;;;;;;;8.249999;7.1;;;;;;;8.76;100;96063.33;;;;
2021/09/02 00:14:46;;;;;;;8.249999;7.1;;;;;;;8.76;100;96063.33;;;;
2021/09/02 00:15:47;;;;;;;8.249999;7.1;;;;;;;8.76;100;96063.33;;;;
2021/09/02 00:16:47;;;;;;;8.249999;7.1;;;;;;;8.76;100;96063.33;;;;
2021/09/02 00:17:48;;;;;;;8.249999;7.1;;;;;;;8.76;100;96063.33;;;;
2021/09/02 00:18:49;;;;;;;8.249999;7.1;;;;;;;8.76;100;96063.33;;;;
2021/09/02 00:19:49;;;;;;;8.249999;7.1;;;;;;;8.76;100;96063.33;;;;
2021/09/02 00:20:50;;;;;;;8.249999;7.1;;;;;;;8.76;100;96063.33;;;;
2021/09/02 00:21:50;;;;;;;8.249999;7.1;;;;;;;8.76;100;96063.33;;;;
2021/09/02 00:22:51;;;;;;;8.249999;7.1;;;;;;;8.76;100;96063.33;;;;
2021/09/02 00:23:52;;;;;;;8.249999;7.1;;;;;;;8.76;100;96063.33;;;;
2021/09/02 00:24:52;;;;;;;8.249999;7.1;;;;;;;8.76;100;96063.33;;;;
2021/09/02 00:25:53;;;;;;;8.249999;7.1;;;;;;;8.76;100;96063.33;;;;
2021/09/02 00:26:53;;;;;;;8.249999;7.1;;;;;;;8.76;100;96063.33;;;;
2021/09/02 00:27:54;;;;;;;8.249999;7.1;;;;;;;8.76;100;96063.33;;;;
2021/09/02 00:28:55;;;;;;;8.249999;7.1;;;;;;;8.76;100;96063.33;;;;
2021/09/02 00:29:55;;;;;;;8.249999;7.1;;;;;;;8.76;100;96063.33;;;;
2021/09/02 00:30:56;;;;;;;8.249999;7.1;;;;;;;8.76;100;96063.33;;;;
2021/09/02 00:31:56;;;;;;;8.249999;7.1;;;;;;;8.76;100;96063.33;;;;
2021/09/02 00:32:57;;;;;;;8.249999;7.1;;;;;;;8.76;100;96063.33;;;;
2021/09/02 00:33:57;;;;;;;8.000002;7.2;;;;;;;8.62;100;96049.96;;;;
2021/09/02 00:34:58;;;;;;;8.000002;7.2;;;;;;;8.62;100;96049.96;;;;
2021/09/02 00:35:58;;;;;;;8.000002;7.2;;;;;;;8.62;100;96049.96;;;;
2021/09/02 00:36:59;;;;;;;8.000002;7.2;;;;;;;8.62;100;96049.96;;;;
2021/09/02 00:37:59;;;;;;;8.000002;7.2;;;;;;;8.62;100;96049.96;;;;
2021/09/02 00:39:00;;;;;;;8.000002;7.2;;;;;;;8.62;100;96049.96;;;;
2021/09/02 00:40:00;;;;;;;8.000002;7.2;;;;;;;8.62;100;96049.96;;;;
2021/09/02 00:41:01;;;;;;;8.000002;7.2;;;;;;;8.62;100;96049.96;;;;
2021/09/02 00:42:02;;;;;;;8.000002;7.2;;;;;;;8.62;100;96049.96;;;;
2021/09/02 00:43:03;;;;;;;8.000002;7.2;;;;;;;8.62;100;96049.96;;;;
2021/09/02 00:44:05;;;;;;;8;6.65;;;;;;;8.51;100;96045.29;;;;
2021/09/02 00:45:05;;;;;;;8;6.65;;;;;;;8.51;100;96045.29;;;;
2021/09/02 00:46:06;;;;;;;8;6.65;;;;;;;8.51;100;96045.29;;;;
2021/09/02 00:47:10;;;;;;;8;6.65;;;;;;;8.51;100;96045.29;;;;
2021/09/02 00:48:12;;;;;;;8;6.65;;;;;;;8.51;100;96045.29;;;;
2021/09/02 00:49:14;;;;;;;8;6.65;;;;;;;8.51;100;96045.29;;;;
2021/09/02 00:50:14;;;;;;;8;6.65;;;;;;;8.51;100;96045.29;;;;
2021/09/02 00:51:15;;;;;;;8;6.65;;;;;;;8.51;100;96045.29;;;;
2021/09/02 00:52:18;;;;;;;8;6.65;;;;;;;8.51;100;96045.29;;;;
2021/09/02 00:53:20;;;;;;;8;6.65;;;;;;;8.51;100;96045.29;;;;
2021/09/02 00:54:21;;;;;;;8;6.65;;;;;;;8.51;100;96045.29;;;;
2021/09/02 00:55:21;;;;;;;8.4;6.649999;;;;;;;8.35;100;96043.8;;;;
2021/09/02 00:56:22;;;;;;;8.4;6.649999;;;;;;;8.35;100;96043.8;;;;
2021/09/02 00:57:23;;;;;;;8.4;6.649999;;;;;;;8.35;100;96043.8;;;;
2021/09/02 00:58:26;;;;;;;8.4;6.649999;;;;;;;8.35;100;96043.8;;;;
2021/09/02 00:59:26;;;;;;;8.4;6.649999;;;;;;;8.35;100;96043.8;;;;
2021/09/02 01:00:27;;;;;;;8.4;6.649999;;;;;;;8.35;100;96043.8;;;;
2021/09/02 01:01:28;;;;;;;8.4;6.649999;;;;;;;8.35;100;96043.8;;;;
2021/09/02 01:02:29;;;;;;;8.4;6.649999;;;;;;;8.35;100;96043.8;;;;
2021/09/02 01:03:29;;;;;;;8.4;6.649999;;;;;;;8.35;100;96043.8;;;;
2021/09/02 01:04:30;;;;;;;8.4;6.649999;;;;;;;8.35;100;96043.8;;;;
2021/09/02 01:05:30;;;;;;;8.550001;6.95;;;;;;;8.26;100;96032.4;;;;
2021/09/02 01:06:31;;;;;;;8.550001;6.95;;;;;;;8.26;100;96032.4;;;;
2021/09/02 01:07:32;;;;;;;8.550001;6.95;;;;;;;8.26;100;96032.4;;;;
2021/09/02 01:08:33;;;;;;;8.550001;6.95;;;;;;;8.26;100;96032.4;;;;
2021/09/02 01:09:34;;;;;;;8.550001;6.95;;;;;;;8.26;100;96032.4;;;;
2021/09/02 01:10:35;;;;;;;8.550001;6.95;;;;;;;8.26;100;96032.4;;;;
2021/09/02 01:11:35;;;;;;;8.550001;6.95;;;;;;;8.26;100;96032.4;;;;
2021/09/02 01:12:36;;;;;;;8.550001;6.95;;;;;;;8.26;100;96032.4;;;;
2021/09/02 01:13:39;;;;;;;8.550001;6.95;;;;;;;8.26;100;96032.4;;;;
2021/09/02 01:14:39;;;;;;;8.550001;6.95;;;;;;;8.26;100;96032.4;;;;
2021/09/02 01:15:40;;;;;;;8.550001;6.95;;;;;;;8.26;100;96032.4;;;;
2021/09/02 01:16:41;;;;;;;8.65;7.100001;;;;;;;8.17;100;96026.03;;;;
2021/09/02 01:17:41;;;;;;;8.65;7.100001;;;;;;;8.17;100;96026.03;;;;
2021/09/02 01:18:43;;;;;;;8.65;7.100001;;;;;;;8.17;100;96026.03;;;;
2021/09/02 01:19:44;;;;;;;8.65;7.100001;;;;;;;8.17;100;96026.03;;;;
2021/09/02 01:20:45;;;;;;;8.65;7.100001;;;;;;;8.17;100;96026.03;;;;
2021/09/02 01:21:46;;;;;;;8.65;7.100001;;;;;;;8.17;100;96026.03;;;;
2021/09/02 01:22:47;;;;;;;8.65;7.100001;;;;;;;8.17;100;96026.03;;;;
2021/09/02 01:23:49;;;;;;;8.65;7.100001;;;;;;;8.17;100;96026.03;;;;
2021/09/02 01:24:50;;;;;;;8.65;7.100001;;;;;;;8.17;100;96026.03;;;;
2021/09/02 01:25:51;;;;;;;8.65;7.100001;;;;;;;8.17;100;96026.03;;;;
2021/09/02 01:26:51;;;;;;;8.15;6.700001;;;;;;;8.06;100;96023.95;;;;
2021/09/02 01:27:52;;;;;;;8.15;6.700001;;;;;;;8.06;100;96023.95;;;;
2021/09/02 01:28:55;;;;;;;8.15;6.700001;;;;;;;8.06;100;96023.95;;;;
2021/09/02 01:29:55;;;;;;;8.15;6.700001;;;;;;;8.06;100;96023.95;;;;
2021/09/02 01:30:58;;;;;;;8.15;6.700001;;;;;;;8.06;100;96023.95;;;;
2021/09/02 01:31:58;;;;;;;8.15;6.700001;;;;;;;8.06;100;96023.95;;;;
2021/09/02 01:32:59;;;;;;;8.15;6.700001;;;;;;;8.06;100;96023.95;;;;
2021/09/02 01:34:00;;;;;;;8.15;6.700001;;;;;;;8.06;100;96023.95;;;;
2021/09/02 01:35:00;;;;;;;8.15;6.700001;;;;;;;8.06;100;96023.95;;;;
2021/09/02 01:36:04;;;;;;;8.15;6.700001;;;;;;;8.06;100;96023.95;;;;
2021/09/02 01:37:05;;;;;;;8.15;6.700001;;;;;;;8.06;100;96023.95;;;;
2021/09/02 01:38:05;;;;;;;8.149999;6.8;;;;;;;7.94;100;96024.62;;;;
2021/09/02 01:39:08;;;;;;;8.149999;6.8;;;;;;;7.94;100;96024.62;;;;
2021/09/02 01:40:08;;;;;;;8.149999;6.8;;;;;;;7.94;100;96024.62;;;;
2021/09/02 01:41:12;;;;;;;8.149999;6.8;;;;;;;7.94;100;96024.62;;;;
2021/09/02 01:42:13;;;;;;;8.149999;6.8;;;;;;;7.94;100;96024.62;;;;
2021/09/02 01:43:14;;;;;;;8.149999;6.8;;;;;;;7.94;100;96024.62;;;;
2021/09/02 01:44:16;;;;;;;8.149999;6.8;;;;;;;7.94;100;96024.62;;;;
2021/09/02 01:45:17;;;;;;;8.149999;6.8;;;;;;;7.94;100;96024.62;;;;
2021/09/02 01:46:19;;;;;;;8.149999;6.8;;;;;;;7.94;100;96024.62;;;;
2021/09/02 01:47:19;;;;;;;8.149999;6.8;;;;;;;7.94;100;96024.62;;;;
2021/09/02 01:48:22;;;;;;;9.749999;7.25;;;;;;;7.83;100;96005.03;;;;
2021/09/02 01:49:22;;;;;;;9.749999;7.25;;;;;;;7.83;100;96005.03;;;;
2021/09/02 01:50:23;;;;;;;9.749999;7.25;;;;;;;7.83;100;96005.03;;;;
2021/09/02 01:51:25;;;;;;;9.749999;7.25;;;;;;;7.83;100;96005.03;;;;
2021/09/02 01:52:26;;;;;;;9.749999;7.25;;;;;;;7.83;100;96005.03;;;;
2021/09/02 01:53:26;;;;;;;9.749999;7.25;;;;;;;7.83;100;96005.03;;;;
2021/09/02 01:54:28;;;;;;;9.749999;7.25;;;;;;;7.83;100;96005.03;;;;
2021/09/02 01:55:29;;;;;;;9.749999;7.25;;;;;;;7.83;100;96005.03;;;;
2021/09/02 01:56:30;;;;;;;9.749999;7.25;;;;;;;7.83;100;96005.03;;;;
2021/09/02 01:57:31;;;;;;;9.749999;7.25;;;;;;;7.83;100;96005.03;;;;
2021/09/02 01:58:31;;;;;;;7.9;6.5;;;;;;;7.73;100;96011.72;;;;
2021/09/02 01:59:32;;;;;;;7.9;6.5;;;;;;;7.73;100;96011.72;;;;
2021/09/02 02:00:33;;;;;;;7.9;6.5;;;;;;;7.73;100;96011.72;;;;
2021/09/02 02:01:35;;;;;;;7.9;6.5;;;;;;;7.73;100;96011.72;;;;
2021/09/02 02:02:35;;;;;;;7.9;6.5;;;;;;;7.73;100;96011.72;;;;
2021/09/02 02:03:37;;;;;;;7.9;6.5;;;;;;;7.73;100;96011.72;;;;
2021/09/02 02:04:37;;;;;;;7.9;6.5;;;;;;;7.73;100;96011.72;;;;
2021/09/02 02:05:38;;;;;;;7.9;6.5;;;;;;;7.73;100;96011.72;;;;
2021/09/02 02:06:39;;;;;;;7.9;6.5;;;;;;;7.73;100;96011.72;;;;
2021/09/02 02:07:39;;;;;;;7.9;6.5;;;;;;;7.73;100;96011.72;;;;
2021/09/02 02:08:40;;;;;;;7.9;6.5;;;;;;;7.73;100;96011.72;;;;
2021/09/02 02:09:41;;;;;;;8.749999;7.000001;;;;;;;7.63;100;96004.11;;;;
2021/09/02 02:10:42;;;;;;;8.749999;7.000001;;;;;;;7.63;100;96004.11;;;;
2021/09/02 02:11:44;;;;;;;8.749999;7.000001;;;;;;;7.63;100;96004.11;;;;
2021/09/02 02:12:44;;;;;;;8.749999;7.000001;;;;;;;7.63;100;96004.11;;;;
2021/09/02 02:13:45;;;;;;;8.749999;7.000001;;;;;;;7.63;100;96004.11;;;;
2021/09/02 02:14:46;;;;;;;8.749999;7.000001;;;;;;;7.63;100;96004.11;;;;
2021/09/02 02:15:46;;;;;;;8.749999;7.000001;;;;;;;7.63;100;96004.11;;;;
2021/09/02 02:16:47;;;;;;;8.749999;7.000001;;;;;;;7.63;100;96004.11;;;;
2021/09/02 02:17:48;;;;;;;8.749999;7.000001;;;;;;;7.63;100;96004.11;;;;
2021/09/02 02:18:48;;;;;;;8.749999;7.000001;;;;;;;7.63;100;96004.11;;;;
2021/09/02 02:19:49;;;;;;;8.749999;7.000001;;;;;;;7.63;100;96004.11;;;;
2021/09/02 02:20:49;;;;;;;7.4;6.349999;;;;;;;7.53;100;96000.56;;;;
2021/09/02 02:21:50;;;;;;;7.4;6.349999;;;;;;;7.53;100;96000.56;;;;
2021/09/02 02:22:50;;;;;;;7.4;6.349999;;;;;;;7.53;100;96000.56;;;;
2021/09/02 02:23:51;;;;;;;7.4;6.349999;;;;;;;7.53;100;96000.56;;;;
2021/09/02 02:24:52;;;;;;;7.4;6.349999;;;;;;;7.53;100;96000.56;;;;
2021/09/02 02:25:52;;;;;;;7.4;6.349999;;;;;;;7.53;100;96000.56;;;;
2021/09/02 02:26:53;;;;;;;7.4;6.349999;;;;;;;7.53;100;96000.56;;;;
2021/09/02 02:27:53;;;;;;;7.4;6.349999;;;;;;;7.53;100;96000.56;;;;
2021/09/02 02:28:54;;;;;;;7.4;6.349999;;;;;;;7.53;100;96000.56;;;;
2021/09/02 02:29:55;;;;;;;7.4;6.349999;;;;;;;7.53;100;96000.56;;;;
2021/09/02 02:30:55;;;;;;;7.6;6.699999;;;;;;;7.36;100;95996.02;;;;
2021/09/02 02:31:56;;;;;;;7.6;6.699999;;;;;;;7.36;100;95996.02;;;;
2021/09/02 02:32:56;;;;;;;7.6;6.699999;;;;;;;7.36;100;95996.02;;;;
2021/09/02 02:33:57;;;;;;;7.6;6.699999;;;;;;;7.36;100;95996.02;;;;
2021/09/02 02:34:57;;;;;;;7.6;6.699999;;;;;;;7.36;100;95996.02;;;;
2021/09/02 02:35:58;;;;;;;7.6;6.699999;;;;;;;7.36;100;95996.02;;;;
2021/09/02 02:36:59;;;;;;;7.6;6.699999;;;;;;;7.36;100;95996.02;;;;
2021/09/02 02:37:59;;;;;;;7.6;6.699999;;;;;;;7.36;100;95996.02;;;;
2021/09/02 02:39:00;;;;;;;7.6;6.699999;;;;;;;7.36;100;95996.02;;;;
2021/09/02 02:40:00;;;;;;;7.6;6.699999;;;;;;;7.36;100;95996.02;;;;
2021/09/02 02:41:01;;;;;;;7.6;6.699999;;;;;;;7.36;100;95996.02;;;;
2021/09/02 02:42:02;;;;;;;8.5;6.249999;;;;;;;7.22;100;95992.03;;;;
2021/09/02 02:43:03;;;;;;;8.5;6.249999;;;;;;;7.22;100;95992.03;;;;
2021/09/02 02:44:03;;;;;;;8.5;6.249999;;;;;;;7.22;100;95992.03;;;;
2021/09/02 02:45:04;;;;;;;8.5;6.249999;;;;;;;7.22;100;95992.03;;;;
2021/09/02 02:46:05;;;;;;;8.5;6.249999;;;;;;;7.22;100;95992.03;;;;
2021/09/02 02:47:06;;;;;;;8.5;6.249999;;;;;;;7.22;100;95992.03;;;;
2021/09/02 02:48:08;;;;;;;8.5;6.249999;;;;;;;7.22;100;95992.03;;;;
2021/09/02 02:49:08;;;;;;;8.5;6.249999;;;;;;;7.22;100;95992.03;;;;
2021/09/02 02:50:09;;;;;;;8.5;6.249999;;;;;;;7.22;100;95992.03;;;;
2021/09/02 02:51:10;;;;;;;8.5;6.249999;;;;;;;7.22;100;95992.03;;;;
2021/09/02 02:52:11;;;;;;;7.150001;6.200001;;;;;;;7.1;100;95984.64;;;;
2021/09/02 02:53:11;;;;;;;7.150001;6.200001;;;;;;;7.1;100;95984.64;;;;
2021/09/02 02:54:12;;;;;;;7.150001;6.200001;;;;;;;7.1;100;95984.64;;;;
2021/09/02 02:55:12;;;;;;;7.150001;6.200001;;;;;;;7.1;100;95984.64;;;;
2021/09/02 02:56:13;;;;;;;7.150001;6.200001;;;;;;;7.1;100;95984.64;;;;
2021/09/02 02:57:13;;;;;;;7.150001;6.200001;;;;;;;7.1;100;95984.64;;;;
2021/09/02 02:58:14;;;;;;;7.150001;6.200001;;;;;;;7.1;100;95984.64;;;;
2021/09/02 02:59:15;;;;;;;7.150001;6.200001;;;;;;;7.1;100;95984.64;;;;
2021/09/02 03:00:16;;;;;;;7.150001;6.200001;;;;;;;7.1;100;95984.64;;;;
2021/09/02 03:01:18;;;;;;;7.150001;6.200001;;;;;;;7.1;100;95984.64;;;;
2021/09/02 03:02:19;;;;;;;7.150001;6.200001;;;;;;;7.1;100;95984.64;;;;
2021/09/02 03:03:20;;;;;;;8.299999;6.5;;;;;;;7.07;100;95993.19;;;;
2021/09/02 03:04:20;;;;;;;8.299999;6.5;;;;;;;7.07;100;95993.19;;;;
2021/09/02 03:05:21;;;;;;;8.299999;6.5;;;;;;;7.07;100;95993.19;;;;
2021/09/02 03:06:21;;;;;;;8.299999;6.5;;;;;;;7.07;100;95993.19;;;;
2021/09/02 03:07:22;;;;;;;8.299999;6.5;;;;;;;7.07;100;95993.19;;;;
2021/09/02 03:08:22;;;;;;;8.299999;6.5;;;;;;;7.07;100;95993.19;;;;
2021/09/02 03:09:23;;;;;;;8.299999;6.5;;;;;;;7.07;100;95993.19;;;;
2021/09/02 03:10:23;;;;;;;8.299999;6.5;;;;;;;7.07;100;95993.19;;;;
2021/09/02 03:11:24;;;;;;;8.299999;6.5;;;;;;;7.07;100;95993.19;;;;
2021/09/02 03:12:24;;;;;;;8.299999;6.5;;;;;;;7.07;100;95993.19;;;;
2021/09/02 03:13:25;;;;;;;6.65;5.799999;;;;;;;7.03;100;95997.71;;;;
2021/09/02 03:14:26;;;;;;;6.65;5.799999;;;;;;;7.03;100;95997.71;;;;
2021/09/02 03:15:26;;;;;;;6.65;5.799999;;;;;;;7.03;100;95997.71;;;;
2021/09/02 03:16:27;;;;;;;6.65;5.799999;;;;;;;7.03;100;95997.71;;;;
2021/09/02 03:17:28;;;;;;;6.65;5.799999;;;;;;;7.03;100;95997.71;;;;
2021/09/02 03:18:28;;;;;;;6.65;5.799999;;;;;;;7.03;100;95997.71;;;;
2021/09/02 03:19:29;;;;;;;6.65;5.799999;;;;;;;7.03;100;95997.71;;;;
2021/09/02 03:20:30;;;;;;;6.65;5.799999;;;;;;;7.03;100;95997.71;;;;
2021/09/02 03:21:31;;;;;;;6.65;5.799999;;;;;;;7.03;100;95997.71;;;;
2021/09/02 03:22:31;;;;;;;6.65;5.799999;;;;;;;7.03;100;95997.71;;;;
2021/09/02 03:23:32;;;;;;;6.65;5.799999;;;;;;;7.03;100;95997.71;;;;
2021/09/02 03:24:33;;;;;;;8;5.649999;;;;;;;6.97;100;95997.13;;;;
2021/09/02 03:25:33;;;;;;;8;5.649999;;;;;;;6.97;100;95997.13;;;;
2021/09/02 03:26:34;;;;;;;8;5.649999;;;;;;;6.97;100;95997.13;;;;
2021/09/02 03:27:35;;;;;;;8;5.649999;;;;;;;6.97;100;95997.13;;;;
2021/09/02 03:28:36;;;;;;;8;5.649999;;;;;;;6.97;100;95997.13;;;;
2021/09/02 03:29:36;;;;;;;8;5.649999;;;;;;;6.97;100;95997.13;;;;
2021/09/02 03:30:37;;;;;;;8;5.649999;;;;;;;6.97;100;95997.13;;;;
2021/09/02 03:31:38;;;;;;;8;5.649999;;;;;;;6.97;100;95997.13;;;;
2021/09/02 03:32:38;;;;;;;8;5.649999;;;;;;;6.97;100;95997.13;;;;
2021/09/02 03:33:39;;;;;;;8;5.649999;;;;;;;6.97;100;95997.13;;;;
2021/09/02 03:34:40;;;;;;;7.55;6.050001;;;;;;;6.89;100;95999.98;;;;
2021/09/02 03:35:40;;;;;;;7.55;6.050001;;;;;;;6.89;100;95999.98;;;;
2021/09/02 03:36:41;;;;;;;7.55;6.050001;;;;;;;6.89;100;95999.98;;;;
2021/09/02 03:37:41;;;;;;;7.55;6.050001;;;;;;;6.89;100;95999.98;;;;
2021/09/02 03:38:42;;;;;;;7.55;6.050001;;;;;;;6.89;100;95999.98;;;;
2021/09/02 03:39:42;;;;;;;7.55;6.050001;;;;;;;6.89;100;95999.98;;;;
2021/09/02 03:40:43;;;;;;;7.55;6.050001;;;;;;;6.89;100;95999.98;;;;
2021/09/02 03:41:43;;;;;;;7.55;6.050001;;;;;;;6.89;100;95999.98;;;;
2021/09/02 03:42:44;;;;;;;7.55;6.050001;;;;;;;6.89;100;95999.98;;;;
2021/09/02 03:43:45;;;;;;;7.55;6.050001;;;;;;;6.89;100;95999.98;;;;
2021/09/02 03:44:45;;;;;;;7.55;6.050001;;;;;;;6.89;100;95999.98;;;;
2021/09/02 03:45:46;;;;;;;6.55;5.649999;;;;;;;6.8;100;96009.59;;;;
2021/09/02 03:46:46;;;;;;;6.55;5.649999;;;;;;;6.8;100;96009.59;;;;
2021/09/02 03:47:47;;;;;;;6.55;5.649999;;;;;;;6.8;100;96009.59;;;;
2021/09/02 03:48:49;;;;;;;6.55;5.649999;;;;;;;6.8;100;96009.59;;;;
2021/09/02 03:49:49;;;;;;;6.55;5.649999;;;;;;;6.8;100;96009.59;;;;
2021/09/02 03:50:50;;;;;;;6.55;5.649999;;;;;;;6.8;100;96009.59;;;;
2021/09/02 03:51:50;;;;;;;6.55;5.649999;;;;;;;6.8;100;96009.59;;;;
2021/09/02 03:52:51;;;;;;;6.55;5.649999;;;;;;;6.8;100;96009.59;;;;
2021/09/02 03:53:51;;;;;;;6.55;5.649999;;;;;;;6.8;100;96009.59;;;;
2021/09/02 03:54:52;;;;;;;6.55;5.649999;;;;;;;6.8;100;96009.59;;;;
2021/09/02 03:55:53;;;;;;;6.55;5.649999;;;;;;;6.8;100;96009.59;;;;
2021/09/02 03:56:53;;;;;;;8.35;5.950001;;;;;;;6.71;100;96013.06;;;;
2021/09/02 03:57:53;;;;;;;8.35;5.950001;;;;;;;6.71;100;96013.06;;;;
2021/09/02 03:58:54;;;;;;;8.35;5.950001;;;;;;;6.71;100;96013.06;;;;
2021/09/02 03:59:55;;;;;;;8.35;5.950001;;;;;;;6.71;100;96013.06;;;;
2021/09/02 04:00:55;;;;;;;8.35;5.950001;;;;;;;6.71;100;96013.06;;;;
2021/09/02 04:01:56;;;;;;;8.35;5.950001;;;;;;;6.71;100;96013.06;;;;
2021/09/02 04:02:56;;;;;;;8.35;5.950001;;;;;;;6.71;100;96013.06;;;;
2021/09/02 04:03:57;;;;;;;8.35;5.950001;;;;;;;6.71;100;96013.06;;;;
2021/09/02 04:04:57;;;;;;;8.35;5.950001;;;;;;;6.71;100;96013.06;;;;
2021/09/02 04:05:58;;;;;;;8.35;5.950001;;;;;;;6.71;100;96013.06;;;;
2021/09/02 04:06:59;;;;;;;6.550001;5.799999;;;;;;;6.55;100;96002.98;;;;
2021/09/02 04:07:59;;;;;;;6.550001;5.799999;;;;;;;6.55;100;96002.98;;;;
2021/09/02 04:09:00;;;;;;;6.550001;5.799999;;;;;;;6.55;100;96002.98;;;;
2021/09/02 04:10:00;;;;;;;6.550001;5.799999;;;;;;;6.55;100;96002.98;;;;
2021/09/02 04:11:01;;;;;;;6.550001;5.799999;;;;;;;6.55;100;96002.98;;;;
2021/09/02 04:12:02;;;;;;;6.550001;5.799999;;;;;;;6.55;100;96002.98;;;;
2021/09/02 04:13:03;;;;;;;6.550001;5.799999;;;;;;;6.55;100;96002.98;;;;
2021/09/02 04:14:03;;;;;;;6.550001;5.799999;;;;;;;6.55;100;96002.98;;;;
2021/09/02 04:15:04;;;;;;;6.550001;5.799999;;;;;;;6.55;100;96002.98;;;;
2021/09/02 04:16:06;;;;;;;6.550001;5.799999;;;;;;;6.55;100;96002.98;;;;
2021/09/02 04:17:06;;;;;;;6.550001;5.799999;;;;;;;6.55;100;96002.98;;;;
2021/09/02 04:18:07;;;;;;;7.649999;6.45;;;;;;;6.42;100;96019.8;;;;
2021/09/02 04:19:08;;;;;;;7.649999;6.45;;;;;;;6.42;100;96019.8;;;;
2021/09/02 04:20:08;;;;;;;7.649999;6.45;;;;;;;6.42;100;96019.8;;;;
2021/09/02 04:21:10;;;;;;;7.649999;6.45;;;;;;;6.42;100;96019.8;;;;
2021/09/02 04:22:10;;;;;;;7.649999;6.45;;;;;;;6.42;100;96019.8;;;;
2021/09/02 04:23:11;;;;;;;7.649999;6.45;;;;;;;6.42;100;96019.8;;;;
2021/09/02 04:24:12;;;;;;;7.649999;6.45;;;;;;;6.42;100;96019.8;;;;
2021/09/02 04:25:12;;;;;;;7.649999;6.45;;;;;;;6.42;100;96019.8;;;;
2021/09/02 04:26:13;;;;;;;7.649999;6.45;;;;;;;6.42;100;96019.8;;;;
2021/09/02 04:27:15;;;;;;;7.649999;6.45;;;;;;;6.42;100;96019.8;;;;
2021/09/02 04:28:15;;;;;;;8.25;6.749999;;;;;;;6.33;100;96014.78;;;;
2021/09/02 04:29:16;;;;;;;8.25;6.749999;;;;;;;6.33;100;96014.78;;;;
2021/09/02 04:30:17;;;;;;;8.25;6.749999;;;;;;;6.33;100;96014.78;;;;
2021/09/02 04:31:17;;;;;;;8.25;6.749999;;;;;;;6.33;100;96014.78;;;;
2021/09/02 04:32:18;;;;;;;8.25;6.749999;;;;;;;6.33;100;96014.78;;;;
2021/09/02 04:33:19;;;;;;;8.25;6.749999;;;;;;;6.33;100;96014.78;;;;
2021/09/02 04:34:19;;;;;;;8.25;6.749999;;;;;;;6.33;100;96014.78;;;;
2021/09/02 04:35:20;;;;;;;8.25;6.749999;;;;;;;6.33;100;96014.78;;;;
2021/09/02 04:36:21;;;;;;;8.25;6.749999;;;;;;;6.33;100;96014.78;;;;
2021/09/02 04:37:21;;;;;;;8.25;6.749999;;;;;;;6.33;100;96014.78;;;;
2021/09/02 04:38:22;;;;;;;8.25;6.749999;;;;;;;6.33;100;96014.78;;;;
2021/09/02 04:39:23;;;;;;;7.450001;6.099999;;;;;;;6.26;100;96014.28;;;;
2021/09/02 04:40:23;;;;;;;7.450001;6.099999;;;;;;;6.26;100;96014.28;;;;
2021/09/02 04:41:24;;;;;;;7.450001;6.099999;;;;;;;6.26;100;96014.28;;;;
2021/09/02 04:42:24;;;;;;;7.450001;6.099999;;;;;;;6.26;100;96014.28;;;;
2021/09/02 04:43:25;;;;;;;7.450001;6.099999;;;;;;;6.26;100;96014.28;;;;
2021/09/02 04:44:25;;;;;;;7.450001;6.099999;;;;;;;6.26;100;96014.28;;;;
2021/09/02 04:45:26;;;;;;;7.450001;6.099999;;;;;;;6.26;100;96014.28;;;;
2021/09/02 04:46:26;;;;;;;7.450001;6.099999;;;;;;;6.26;100;96014.28;;;;
2021/09/02 04:47:27;;;;;;;7.450001;6.099999;;;;;;;6.26;100;96014.28;;;;
2021/09/02 04:48:28;;;;;;;7.450001;6.099999;;;;;;;6.26;100;96014.28;;;;
2021/09/02 04:49:28;;;;;;;8.100001;6.3;;;;;;;6.23;100;96012.83;;;;
2021/09/02 04:50:29;;;;;;;8.100001;6.3;;;;;;;6.23;100;96012.83;;;;
2021/09/02 04:51:29;;;;;;;8.100001;6.3;;;;;;;6.23;100;96012.83;;;;
2021/09/02 04:52:30;;;;;;;8.100001;6.3;;;;;;;6.23;100;96012.83;;;;
2021/09/02 04:53:31;;;;;;;8.100001;6.3;;;;;;;6.23;100;96012.83;;;;
2021/09/02 04:54:31;;;;;;;8.100001;6.3;;;;;;;6.23;100;96012.83;;;;
2021/09/02 04:55:32;;;;;;;8.100001;6.3;;;;;;;6.23;100;96012.83;;;;
2021/09/02 04:56:32;;;;;;;8.100001;6.3;;;;;;;6.23;100;96012.83;;;;
2021/09/02 04:57:33;;;;;;;8.100001;6.3;;;;;;;6.23;100;96012.83;;;;
2021/09/02 04:58:33;;;;;;;8.100001;6.3;;;;;;;6.23;100;96012.83;;;;
2021/09/02 04:59:34;;;;;;;8.100001;6.3;;;;;;;6.23;100;96012.83;;;;
2021/09/02 05:00:34;;;;;;;6.95;6.15;;;;;;;6.24;100;96007.76;;;;
2021/09/02 05:01:37;;;;;;;6.95;6.15;;;;;;;6.24;100;96007.76;;;;
2021/09/02 05:02:38;;;;;;;6.95;6.15;;;;;;;6.24;100;96007.76;;;;
2021/09/02 05:03:38;;;;;;;6.95;6.15;;;;;;;6.24;100;96007.76;;;;
2021/09/02 05:04:39;;;;;;;6.95;6.15;;;;;;;6.24;100;96007.76;;;;
2021/09/02 05:05:39;;;;;;;6.95;6.15;;;;;;;6.24;100;96007.76;;;;
2021/09/02 05:06:40;;;;;;;6.95;6.15;;;;;;;6.24;100;96007.76;;;;
2021/09/02 05:07:41;;;;;;;6.95;6.15;;;;;;;6.24;100;96007.76;;;;
2021/09/02 05:08:41;;;;;;;6.95;6.15;;;;;;;6.24;100;96007.76;;;;
2021/09/02 05:09:42;;;;;;;6.95;6.15;;;;;;;6.24;100;96007.76;;;;
2021/09/02 05:10:42;;;;;;;9.2;7.4;;;;;;;6.36;100;96021.51;;;;
2021/09/02 05:11:43;;;;;;;9.2;7.4;;;;;;;6.36;100;96021.51;;;;
2021/09/02 05:12:43;;;;;;;9.2;7.4;;;;;;;6.36;100;96021.51;;;;
2021/09/02 05:13:44;;;;;;;9.2;7.4;;;;;;;6.36;100;96021.51;;;;
2021/09/02 05:14:44;;;;;;;9.2;7.4;;;;;;;6.36;100;96021.51;;;;
2021/09/02 05:15:46;;;;;;;9.2;7.4;;;;;;;6.36;100;96021.51;;;;
2021/09/02 05:16:46;;;;;;;9.2;7.4;;;;;;;6.36;100;96021.51;;;;
2021/09/02 05:17:47;;;;;;;9.2;7.4;;;;;;;6.36;100;96021.51;;;;
2021/09/02 05:18:48;;;;;;;9.2;7.4;;;;;;;6.36;100;96021.51;;;;
2021/09/02 05:19:48;;;;;;;9.2;7.4;;;;;;;6.36;100;96021.51;;;;
2021/09/02 05:20:49;;;;;;;9.2;7.4;;;;;;;6.36;100;96021.51;;;;
2021/09/02 05:21:50;;;;;;;8.749999;7.099999;;;;;;;6.54;100;96031.27;;;;
2021/09/02 05:22:50;;;;;;;8.749999;7.099999;;;;;;;6.54;100;96031.27;;;;
2021/09/02 05:23:51;;;;;;;8.749999;7.099999;;;;;;;6.54;100;96031.27;;;;
2021/09/02 05:24:51;;;;;;;8.749999;7.099999;;;;;;;6.54;100;96031.27;;;;
2021/09/02 05:25:52;;;;;;;8.749999;7.099999;;;;;;;6.54;100;96031.27;;;;
2021/09/02 05:26:52;;;;;;;8.749999;7.099999;;;;;;;6.54;100;96031.27;;;;
2021/09/02 05:27:54;;;;;;;8.749999;7.099999;;;;;;;6.54;100;96031.27;;;;
2021/09/02 05:28:55;;;;;;;8.749999;7.099999;;;;;;;6.54;100;96031.27;;;;
2021/09/02 05:29:56;;;;;;;8.749999;7.099999;;;;;;;6.54;100;96031.27;;;;
2021/09/02 05:30:56;;;;;;;8.749999;7.099999;;;;;;;6.54;100;96031.27;;;;
2021/09/02 05:31:57;;;;;;;9.750001;8.249999;;;;;;;6.81;100;96030.98;;;;
2021/09/02 05:32:57;;;;;;;9.750001;8.249999;;;;;;;6.81;100;96030.98;;;;
2021/09/02 05:33:58;;;;;;;9.750001;8.249999;;;;;;;6.81;100;96030.98;;;;
2021/09/02 05:34:58;;;;;;;9.750001;8.249999;;;;;;;6.81;100;96030.98;;;;
2021/09/02 05:35:59;;;;;;;9.750001;8.249999;;;;;;;6.81;100;96030.98;;;;
2021/09/02 05:36:59;;;;;;;9.750001;8.249999;;;;;;;6.81;100;96030.98;;;;
2021/09/02 05:38:00;;;;;;;9.750001;8.249999;;;;;;;6.81;100;96030.98;;;;
2021/09/02 05:39:02;;;;;;;9.750001;8.249999;;;;;;;6.81;100;96030.98;;;;
2021/09/02 05:40:03;;;;;;;9.750001;8.249999;;;;;;;6.81;100;96030.98;;;;
2021/09/02 05:41:05;;;;;;;9.750001;8.249999;;;;;;;6.81;100;96030.98;;;;
2021/09/02 05:42:06;;;;;;;9.750001;8.249999;;;;;;;6.81;100;96030.98;;;;
2021/09/02 05:43:07;;;;;;;9.750001;8.249999;;;;;;;6.81;100;96030.98;;;;
2021/09/02 05:44:11;;;;;;;9.750001;8.249999;;;;;;;6.81;100;96030.98;;;;
2021/09/02 05:45:12;;;;;;;9.750001;8.249999;;;;;;;6.81;100;96030.98;;;;
2021/09/02 05:46:12;;;;;;;9.750001;8.249999;;;;;;;6.81;100;96030.98;;;;
2021/09/02 05:47:13;;;;;;;9.750001;8.249999;;;;;;;6.81;100;96030.98;;;;
2021/09/02 05:48:13;;;;;;;9.750001;8.249999;;;;;;;6.81;100;96030.98;;;;
2021/09/02 05:49:14;;;;;;;9.750001;8.249999;;;;;;;6.81;100;96030.98;;;;
2021/09/02 05:50:14;;;;;;;9.750001;8.249999;;;;;;;6.81;100;96030.98;;;;
2021/09/02 05:51:15;;;;;;;9.750001;8.249999;;;;;;;6.81;100;96030.98;;;;
2021/09/02 05:52:16;;;;;;;9.750001;8.249999;;;;;;;6.81;100;96030.98;;;;
2021/09/02 05:53:16;;;;;;;14.9;12.15;;;;;;;7.68;100;96026.25;;;;
2021/09/02 05:54:17;;;;;;;14.9;12.15;;;;;;;7.68;100;96026.25;;;;
2021/09/02 05:55:17;;;;;;;14.9;12.15;;;;;;;7.68;100;96026.25;;;;